sensor_id;sensor_type;location;lat;lon;timestamp;P1;durP1;ratioP1;P2;durP2;ratioP2
76284;SDS011;65096;50.998;7.098;2023-03-11T00:00:39;5.90;;;1.73;;
76284;SDS011;65096;50.998;7.098;2023-03-11T00:03:10;8.23;;;2.05;;
76284;SDS011;65096;50.998;7.098;2023-03-11T00:05:39;5.00;;;1.45;;
76284;SDS011;65096;50.998;7.098;2023-03-11T00:08:08;7.97;;;2.33;;
76284;SDS011;65096;50.998;7.098;2023-03-11T00:10:39;8.10;;;1.80;;
76284;SDS011;65096;50.998;7.098;2023-03-11T00:13:08;4.72;;;1.48;;
76284;SDS011;65096;50.998;7.098;2023-03-11T00:15:39;5.65;;;1.80;;
76284;SDS011;65096;50.998;7.098;2023-03-11T00:18:06;3.88;;;1.52;;
76284;SDS011;65096;50.998;7.098;2023-03-11T00:20:36;7.28;;;1.63;;
76284;SDS011;65096;50.998;7.098;2023-03-11T00:23:04;9.77;;;2.10;;
76284;SDS011;65096;50.998;7.098;2023-03-11T00:25:33;5.93;;;2.00;;
76284;SDS011;65096;50.998;7.098;2023-03-11T00:28:00;8.70;;;2.00;;
76284;SDS011;65096;50.998;7.098;2023-03-11T00:30:27;7.32;;;2.03;;
76284;SDS011;65096;50.998;7.098;2023-03-11T00:32:55;6.00;;;1.70;;
76284;SDS011;65096;50.998;7.098;2023-03-11T00:35:24;10.25;;;2.08;;
76284;SDS011;65096;50.998;7.098;2023-03-11T00:37:55;5.75;;;1.80;;
76284;SDS011;65096;50.998;7.098;2023-03-11T00:40:23;5.72;;;1.80;;
76284;SDS011;65096;50.998;7.098;2023-03-11T00:42:51;8.00;;;1.88;;
76284;SDS011;65096;50.998;7.098;2023-03-11T00:45:18;7.03;;;1.58;;
76284;SDS011;65096;50.998;7.098;2023-03-11T00:47:45;7.07;;;1.67;;
76284;SDS011;65096;50.998;7.098;2023-03-11T00:50:13;6.28;;;1.80;;
76284;SDS011;65096;50.998;7.098;2023-03-11T00:52:42;4.65;;;1.50;;
76284;SDS011;65096;50.998;7.098;2023-03-11T00:55:10;4.57;;;1.60;;
76284;SDS011;65096;50.998;7.098;2023-03-11T00:57:40;7.25;;;1.77;;
76284;SDS011;65096;50.998;7.098;2023-03-11T01:00:07;10.73;;;1.98;;
76284;SDS011;65096;50.998;7.098;2023-03-11T01:02:38;6.95;;;1.63;;
76284;SDS011;65096;50.998;7.098;2023-03-11T01:05:05;6.35;;;1.70;;
76284;SDS011;65096;50.998;7.098;2023-03-11T01:07:32;8.60;;;2.00;;
76284;SDS011;65096;50.998;7.098;2023-03-11T01:09:59;4.78;;;1.60;;
76284;SDS011;65096;50.998;7.098;2023-03-11T01:12:27;7.00;;;1.90;;
76284;SDS011;65096;50.998;7.098;2023-03-11T01:14:54;5.60;;;1.70;;
76284;SDS011;65096;50.998;7.098;2023-03-11T01:17:20;8.27;;;1.88;;
76284;SDS011;65096;50.998;7.098;2023-03-11T01:19:47;6.80;;;1.50;;
76284;SDS011;65096;50.998;7.098;2023-03-11T01:22:14;7.18;;;1.60;;
76284;SDS011;65096;50.998;7.098;2023-03-11T01:24:41;5.95;;;1.67;;
76284;SDS011;65096;50.998;7.098;2023-03-11T01:27:08;4.68;;;1.48;;
76284;SDS011;65096;50.998;7.098;2023-03-11T01:29:36;5.22;;;1.92;;
76284;SDS011;65096;50.998;7.098;2023-03-11T01:32:03;7.13;;;1.90;;
76284;SDS011;65096;50.998;7.098;2023-03-11T01:34:30;7.07;;;1.63;;
76284;SDS011;65096;50.998;7.098;2023-03-11T01:36:59;4.80;;;1.65;;
76284;SDS011;65096;50.998;7.098;2023-03-11T01:39:26;5.75;;;1.60;;
76284;SDS011;65096;50.998;7.098;2023-03-11T01:41:53;6.72;;;1.73;;
76284;SDS011;65096;50.998;7.098;2023-03-11T01:44:20;8.52;;;1.67;;
76284;SDS011;65096;50.998;7.098;2023-03-11T01:49:52;3.83;;;1.38;;
76284;SDS011;65096;50.998;7.098;2023-03-11T01:52:19;6.50;;;1.60;;
76284;SDS011;65096;50.998;7.098;2023-03-11T01:54:46;5.00;;;1.98;;
76284;SDS011;65096;50.998;7.098;2023-03-11T01:57:12;11.95;;;2.10;;
76284;SDS011;65096;50.998;7.098;2023-03-11T01:59:41;7.15;;;1.85;;
76284;SDS011;65096;50.998;7.098;2023-03-11T02:02:12;5.95;;;1.65;;
76284;SDS011;65096;50.998;7.098;2023-03-11T02:04:44;6.32;;;1.60;;
76284;SDS011;65096;50.998;7.098;2023-03-11T02:07:13;4.85;;;1.63;;
76284;SDS011;65096;50.998;7.098;2023-03-11T02:09:40;5.15;;;1.83;;
76284;SDS011;65096;50.998;7.098;2023-03-11T02:12:08;9.35;;;1.95;;
76284;SDS011;65096;50.998;7.098;2023-03-11T02:14:37;6.53;;;1.50;;
76284;SDS011;65096;50.998;7.098;2023-03-11T02:17:07;8.80;;;2.15;;
76284;SDS011;65096;50.998;7.098;2023-03-11T02:19:39;8.75;;;1.70;;
76284;SDS011;65096;50.998;7.098;2023-03-11T02:22:18;6.68;;;1.67;;
76284;SDS011;65096;50.998;7.098;2023-03-11T02:24:48;5.82;;;1.48;;
76284;SDS011;65096;50.998;7.098;2023-03-11T02:27:20;5.80;;;1.98;;
76284;SDS011;65096;50.998;7.098;2023-03-11T02:29:47;7.10;;;1.50;;
76284;SDS011;65096;50.998;7.098;2023-03-11T02:32:18;6.25;;;1.60;;
76284;SDS011;65096;50.998;7.098;2023-03-11T02:34:45;7.05;;;1.90;;
76284;SDS011;65096;50.998;7.098;2023-03-11T02:37:13;5.53;;;1.40;;
76284;SDS011;65096;50.998;7.098;2023-03-11T02:39:42;5.63;;;1.40;;
76284;SDS011;65096;50.998;7.098;2023-03-11T02:42:12;5.32;;;1.35;;
76284;SDS011;65096;50.998;7.098;2023-03-11T02:44:43;9.05;;;1.63;;
76284;SDS011;65096;50.998;7.098;2023-03-11T02:47:12;5.90;;;1.33;;
76284;SDS011;65096;50.998;7.098;2023-03-11T02:49:39;8.25;;;2.38;;
76284;SDS011;65096;50.998;7.098;2023-03-11T02:52:06;8.25;;;1.60;;
76284;SDS011;65096;50.998;7.098;2023-03-11T02:54:33;6.28;;;2.05;;
76284;SDS011;65096;50.998;7.098;2023-03-11T02:57:00;7.85;;;1.50;;
76284;SDS011;65096;50.998;7.098;2023-03-11T02:59:26;10.32;;;2.33;;
76284;SDS011;65096;50.998;7.098;2023-03-11T03:01:54;5.60;;;1.80;;
76284;SDS011;65096;50.998;7.098;2023-03-11T03:04:21;6.47;;;1.73;;
76284;SDS011;65096;50.998;7.098;2023-03-11T03:06:48;9.95;;;2.10;;
76284;SDS011;65096;50.998;7.098;2023-03-11T03:09:15;6.90;;;1.85;;
76284;SDS011;65096;50.998;7.098;2023-03-11T03:11:41;7.28;;;1.80;;
76284;SDS011;65096;50.998;7.098;2023-03-11T03:14:08;6.32;;;1.80;;
76284;SDS011;65096;50.998;7.098;2023-03-11T03:16:35;6.10;;;1.77;;
76284;SDS011;65096;50.998;7.098;2023-03-11T03:19:03;5.70;;;1.83;;
76284;SDS011;65096;50.998;7.098;2023-03-11T03:21:29;8.80;;;1.80;;
76284;SDS011;65096;50.998;7.098;2023-03-11T03:23:56;8.02;;;1.83;;
76284;SDS011;65096;50.998;7.098;2023-03-11T03:26:23;4.65;;;1.48;;
76284;SDS011;65096;50.998;7.098;2023-03-11T03:28:49;6.50;;;1.60;;
76284;SDS011;65096;50.998;7.098;2023-03-11T03:31:16;6.63;;;1.80;;
76284;SDS011;65096;50.998;7.098;2023-03-11T03:33:43;7.53;;;2.13;;
76284;SDS011;65096;50.998;7.098;2023-03-11T03:36:12;6.65;;;1.67;;
76284;SDS011;65096;50.998;7.098;2023-03-11T03:38:40;6.88;;;1.60;;
76284;SDS011;65096;50.998;7.098;2023-03-11T03:41:07;4.70;;;1.30;;
76284;SDS011;65096;50.998;7.098;2023-03-11T03:43:34;5.72;;;1.38;;
76284;SDS011;65096;50.998;7.098;2023-03-11T03:46:01;5.55;;;1.25;;
76284;SDS011;65096;50.998;7.098;2023-03-11T03:48:29;8.30;;;1.70;;
76284;SDS011;65096;50.998;7.098;2023-03-11T03:51:00;8.07;;;2.20;;
76284;SDS011;65096;50.998;7.098;2023-03-11T03:53:29;4.63;;;1.05;;
76284;SDS011;65096;50.998;7.098;2023-03-11T03:55:56;7.40;;;1.30;;
76284;SDS011;65096;50.998;7.098;2023-03-11T03:58:23;6.60;;;1.40;;
76284;SDS011;65096;50.998;7.098;2023-03-11T04:00:53;7.57;;;1.48;;
76284;SDS011;65096;50.998;7.098;2023-03-11T04:03:20;3.90;;;1.20;;
76284;SDS011;65096;50.998;7.098;2023-03-11T04:05:47;4.22;;;1.02;;
76284;SDS011;65096;50.998;7.098;2023-03-11T04:08:14;5.82;;;1.27;;
76284;SDS011;65096;50.998;7.098;2023-03-11T04:10:42;7.75;;;1.40;;
76284;SDS011;65096;50.998;7.098;2023-03-11T04:13:09;4.50;;;1.17;;
76284;SDS011;65096;50.998;7.098;2023-03-11T04:15:36;5.70;;;1.02;;
76284;SDS011;65096;50.998;7.098;2023-03-11T04:18:03;6.35;;;1.38;;
76284;SDS011;65096;50.998;7.098;2023-03-11T04:20:29;4.30;;;1.40;;
76284;SDS011;65096;50.998;7.098;2023-03-11T04:22:56;6.55;;;1.33;;
76284;SDS011;65096;50.998;7.098;2023-03-11T04:25:23;6.38;;;1.27;;
76284;SDS011;65096;50.998;7.098;2023-03-11T04:27:51;3.42;;;1.13;;
76284;SDS011;65096;50.998;7.098;2023-03-11T04:30:18;9.65;;;1.33;;
76284;SDS011;65096;50.998;7.098;2023-03-11T04:32:44;6.80;;;1.73;;
76284;SDS011;65096;50.998;7.098;2023-03-11T04:35:11;6.43;;;1.50;;
76284;SDS011;65096;50.998;7.098;2023-03-11T04:37:38;6.57;;;1.42;;
76284;SDS011;65096;50.998;7.098;2023-03-11T04:40:05;9.27;;;1.52;;
76284;SDS011;65096;50.998;7.098;2023-03-11T04:42:34;4.35;;;1.40;;
76284;SDS011;65096;50.998;7.098;2023-03-11T04:45:02;5.95;;;1.65;;
76284;SDS011;65096;50.998;7.098;2023-03-11T04:47:29;8.50;;;1.90;;
76284;SDS011;65096;50.998;7.098;2023-03-11T04:49:56;6.30;;;1.30;;
76284;SDS011;65096;50.998;7.098;2023-03-11T04:52:23;6.53;;;1.50;;
76284;SDS011;65096;50.998;7.098;2023-03-11T04:54:50;9.25;;;1.63;;
76284;SDS011;65096;50.998;7.098;2023-03-11T04:57:16;5.35;;;1.40;;
76284;SDS011;65096;50.998;7.098;2023-03-11T04:59:43;5.90;;;1.50;;
76284;SDS011;65096;50.998;7.098;2023-03-11T05:02:11;7.05;;;1.80;;
76284;SDS011;65096;50.998;7.098;2023-03-11T05:04:38;5.93;;;1.70;;
76284;SDS011;65096;50.998;7.098;2023-03-11T05:07:05;7.03;;;1.80;;
76284;SDS011;65096;50.998;7.098;2023-03-11T05:09:33;6.03;;;1.48;;
76284;SDS011;65096;50.998;7.098;2023-03-11T05:12:00;5.30;;;1.40;;
76284;SDS011;65096;50.998;7.098;2023-03-11T05:14:26;6.18;;;1.38;;
76284;SDS011;65096;50.998;7.098;2023-03-11T05:16:53;5.20;;;1.63;;
76284;SDS011;65096;50.998;7.098;2023-03-11T05:19:21;8.00;;;1.85;;
76284;SDS011;65096;50.998;7.098;2023-03-11T05:21:59;5.43;;;1.95;;
76284;SDS011;65096;50.998;7.098;2023-03-11T05:24:26;4.88;;;1.77;;
76284;SDS011;65096;50.998;7.098;2023-03-11T05:26:53;5.40;;;1.52;;
76284;SDS011;65096;50.998;7.098;2023-03-11T05:29:20;8.60;;;1.60;;
76284;SDS011;65096;50.998;7.098;2023-03-11T05:31:47;7.93;;;1.60;;
76284;SDS011;65096;50.998;7.098;2023-03-11T05:34:14;6.88;;;1.92;;
76284;SDS011;65096;50.998;7.098;2023-03-11T05:36:43;8.35;;;1.70;;
76284;SDS011;65096;50.998;7.098;2023-03-11T05:39:10;5.38;;;1.60;;
76284;SDS011;65096;50.998;7.098;2023-03-11T05:41:37;6.20;;;2.00;;
76284;SDS011;65096;50.998;7.098;2023-03-11T05:44:04;5.63;;;1.58;;
76284;SDS011;65096;50.998;7.098;2023-03-11T05:46:30;9.88;;;2.30;;
76284;SDS011;65096;50.998;7.098;2023-03-11T05:48:58;9.07;;;2.08;;
76284;SDS011;65096;50.998;7.098;2023-03-11T05:51:24;5.70;;;1.67;;
76284;SDS011;65096;50.998;7.098;2023-03-11T05:53:54;6.55;;;1.90;;
76284;SDS011;65096;50.998;7.098;2023-03-11T05:56:21;7.35;;;2.00;;
76284;SDS011;65096;50.998;7.098;2023-03-11T05:58:48;4.25;;;1.40;;
76284;SDS011;65096;50.998;7.098;2023-03-11T06:01:16;7.18;;;1.73;;
76284;SDS011;65096;50.998;7.098;2023-03-11T06:03:43;7.25;;;1.70;;
76284;SDS011;65096;50.998;7.098;2023-03-11T06:06:11;4.97;;;1.50;;
76284;SDS011;65096;50.998;7.098;2023-03-11T06:08:38;5.43;;;1.70;;
76284;SDS011;65096;50.998;7.098;2023-03-11T06:11:11;7.57;;;1.77;;
76284;SDS011;65096;50.998;7.098;2023-03-11T06:13:38;5.05;;;1.38;;
76284;SDS011;65096;50.998;7.098;2023-03-11T06:16:05;7.35;;;1.85;;
76284;SDS011;65096;50.998;7.098;2023-03-11T06:18:32;5.13;;;1.55;;
76284;SDS011;65096;50.998;7.098;2023-03-11T06:20:59;5.82;;;1.38;;
76284;SDS011;65096;50.998;7.098;2023-03-11T06:23:27;6.72;;;1.60;;
76284;SDS011;65096;50.998;7.098;2023-03-11T06:25:55;4.47;;;1.60;;
76284;SDS011;65096;50.998;7.098;2023-03-11T06:28:23;5.88;;;1.60;;
76284;SDS011;65096;50.998;7.098;2023-03-11T06:30:50;9.50;;;2.10;;
76284;SDS011;65096;50.998;7.098;2023-03-11T06:33:20;7.85;;;1.83;;
76284;SDS011;65096;50.998;7.098;2023-03-11T06:35:54;4.07;;;1.52;;
76284;SDS011;65096;50.998;7.098;2023-03-11T06:38:21;8.70;;;1.60;;
76284;SDS011;65096;50.998;7.098;2023-03-11T06:40:48;8.18;;;2.95;;
76284;SDS011;65096;50.998;7.098;2023-03-11T06:43:15;4.38;;;1.50;;
76284;SDS011;65096;50.998;7.098;2023-03-11T06:45:43;8.63;;;1.90;;
76284;SDS011;65096;50.998;7.098;2023-03-11T06:48:10;8.35;;;2.00;;
76284;SDS011;65096;50.998;7.098;2023-03-11T06:53:03;8.95;;;2.13;;
76284;SDS011;65096;50.998;7.098;2023-03-11T06:55:31;8.88;;;2.50;;
76284;SDS011;65096;50.998;7.098;2023-03-11T06:57:58;9.88;;;4.15;;
76284;SDS011;65096;50.998;7.098;2023-03-11T07:00:25;11.30;;;4.18;;
76284;SDS011;65096;50.998;7.098;2023-03-11T07:02:53;10.65;;;3.80;;
76284;SDS011;65096;50.998;7.098;2023-03-11T07:05:20;9.82;;;3.80;;
76284;SDS011;65096;50.998;7.098;2023-03-11T07:07:47;10.52;;;3.92;;
76284;SDS011;65096;50.998;7.098;2023-03-11T07:10:13;8.13;;;3.20;;
76284;SDS011;65096;50.998;7.098;2023-03-11T07:12:40;8.40;;;2.67;;
76284;SDS011;65096;50.998;7.098;2023-03-11T07:15:08;7.00;;;2.47;;
76284;SDS011;65096;50.998;7.098;2023-03-11T07:17:35;7.18;;;2.00;;
76284;SDS011;65096;50.998;7.098;2023-03-11T07:20:03;9.63;;;2.17;;
76284;SDS011;65096;50.998;7.098;2023-03-11T07:22:30;8.93;;;2.25;;
76284;SDS011;65096;50.998;7.098;2023-03-11T07:24:57;8.35;;;2.35;;
76284;SDS011;65096;50.998;7.098;2023-03-11T07:27:24;7.13;;;2.05;;
76284;SDS011;65096;50.998;7.098;2023-03-11T07:29:52;8.18;;;2.30;;
76284;SDS011;65096;50.998;7.098;2023-03-11T07:32:19;5.72;;;1.90;;
76284;SDS011;65096;50.998;7.098;2023-03-11T07:34:45;8.00;;;1.80;;
76284;SDS011;65096;50.998;7.098;2023-03-11T07:37:13;6.18;;;1.92;;
76284;SDS011;65096;50.998;7.098;2023-03-11T07:39:40;9.65;;;2.22;;
76284;SDS011;65096;50.998;7.098;2023-03-11T07:42:07;6.43;;;1.63;;
76284;SDS011;65096;50.998;7.098;2023-03-11T07:44:34;5.45;;;1.90;;
76284;SDS011;65096;50.998;7.098;2023-03-11T07:47:01;8.75;;;2.15;;
76284;SDS011;65096;50.998;7.098;2023-03-11T07:49:28;9.15;;;1.80;;
76284;SDS011;65096;50.998;7.098;2023-03-11T07:51:54;7.53;;;2.22;;
76284;SDS011;65096;50.998;7.098;2023-03-11T07:54:22;6.53;;;1.90;;
76284;SDS011;65096;50.998;7.098;2023-03-11T07:56:49;6.60;;;1.58;;
76284;SDS011;65096;50.998;7.098;2023-03-11T07:59:16;8.30;;;2.13;;
76284;SDS011;65096;50.998;7.098;2023-03-11T08:01:43;8.02;;;2.17;;
76284;SDS011;65096;50.998;7.098;2023-03-11T08:04:11;9.98;;;2.05;;
76284;SDS011;65096;50.998;7.098;2023-03-11T08:06:42;6.43;;;2.03;;
76284;SDS011;65096;50.998;7.098;2023-03-11T08:09:10;4.53;;;1.90;;
76284;SDS011;65096;50.998;7.098;2023-03-11T08:11:39;7.72;;;2.17;;
76284;SDS011;65096;50.998;7.098;2023-03-11T08:14:06;8.52;;;2.00;;
76284;SDS011;65096;50.998;7.098;2023-03-11T08:16:33;8.13;;;2.70;;
76284;SDS011;65096;50.998;7.098;2023-03-11T08:19:00;6.05;;;2.58;;
76284;SDS011;65096;50.998;7.098;2023-03-11T08:21:27;5.10;;;2.08;;
76284;SDS011;65096;50.998;7.098;2023-03-11T08:23:56;8.35;;;2.42;;
76284;SDS011;65096;50.998;7.098;2023-03-11T08:26:24;4.53;;;1.50;;
76284;SDS011;65096;50.998;7.098;2023-03-11T08:28:53;5.90;;;1.67;;
76284;SDS011;65096;50.998;7.098;2023-03-11T08:31:21;8.00;;;2.15;;
76284;SDS011;65096;50.998;7.098;2023-03-11T08:33:49;7.03;;;1.55;;
76284;SDS011;65096;50.998;7.098;2023-03-11T08:36:17;6.30;;;2.03;;
76284;SDS011;65096;50.998;7.098;2023-03-11T08:38:45;6.38;;;1.73;;
76284;SDS011;65096;50.998;7.098;2023-03-11T08:41:12;6.15;;;1.63;;
76284;SDS011;65096;50.998;7.098;2023-03-11T08:43:39;6.30;;;1.85;;
76284;SDS011;65096;50.998;7.098;2023-03-11T08:46:07;7.35;;;2.70;;
76284;SDS011;65096;50.998;7.098;2023-03-11T08:48:39;5.50;;;1.50;;
76284;SDS011;65096;50.998;7.098;2023-03-11T08:51:07;5.72;;;1.63;;
76284;SDS011;65096;50.998;7.098;2023-03-11T08:53:35;6.97;;;1.50;;
76284;SDS011;65096;50.998;7.098;2023-03-11T08:56:02;4.90;;;1.80;;
76284;SDS011;65096;50.998;7.098;2023-03-11T08:58:30;4.95;;;1.63;;
76284;SDS011;65096;50.998;7.098;2023-03-11T09:00:56;8.90;;;1.63;;
76284;SDS011;65096;50.998;7.098;2023-03-11T09:03:25;5.43;;;1.65;;
76284;SDS011;65096;50.998;7.098;2023-03-11T09:05:55;7.22;;;1.83;;
76284;SDS011;65096;50.998;7.098;2023-03-11T09:08:22;5.90;;;1.63;;
76284;SDS011;65096;50.998;7.098;2023-03-11T09:10:49;6.43;;;1.42;;
76284;SDS011;65096;50.998;7.098;2023-03-11T09:13:16;5.57;;;1.30;;
76284;SDS011;65096;50.998;7.098;2023-03-11T09:15:43;3.67;;;1.35;;
76284;SDS011;65096;50.998;7.098;2023-03-11T09:18:10;5.70;;;1.30;;
76284;SDS011;65096;50.998;7.098;2023-03-11T09:20:39;5.63;;;1.45;;
76284;SDS011;65096;50.998;7.098;2023-03-11T09:23:07;4.93;;;1.48;;
76284;SDS011;65096;50.998;7.098;2023-03-11T09:25:35;5.22;;;1.70;;
76284;SDS011;65096;50.998;7.098;2023-03-11T09:28:02;4.25;;;1.08;;
76284;SDS011;65096;50.998;7.098;2023-03-11T09:30:29;3.67;;;1.20;;
76284;SDS011;65096;50.998;7.098;2023-03-11T09:32:56;4.93;;;1.55;;
76284;SDS011;65096;50.998;7.098;2023-03-11T09:35:22;3.83;;;1.40;;
76284;SDS011;65096;50.998;7.098;2023-03-11T09:37:51;6.72;;;1.77;;
76284;SDS011;65096;50.998;7.098;2023-03-11T09:40:18;6.63;;;1.40;;
76284;SDS011;65096;50.998;7.098;2023-03-11T09:42:49;8.18;;;1.60;;
76284;SDS011;65096;50.998;7.098;2023-03-11T09:45:28;4.25;;;1.50;;
76284;SDS011;65096;50.998;7.098;2023-03-11T09:48:01;4.18;;;1.30;;
76284;SDS011;65096;50.998;7.098;2023-03-11T09:50:37;6.30;;;1.33;;
76284;SDS011;65096;50.998;7.098;2023-03-11T09:53:16;3.97;;;1.10;;
76284;SDS011;65096;50.998;7.098;2023-03-11T09:55:48;4.32;;;1.20;;
76284;SDS011;65096;50.998;7.098;2023-03-11T09:58:19;5.03;;;1.80;;
76284;SDS011;65096;50.998;7.098;2023-03-11T10:00:52;4.72;;;1.45;;
76284;SDS011;65096;50.998;7.098;2023-03-11T10:03:24;4.50;;;0.90;;
76284;SDS011;65096;50.998;7.098;2023-03-11T10:05:56;6.22;;;1.30;;
76284;SDS011;65096;50.998;7.098;2023-03-11T10:08:32;4.32;;;1.20;;
76284;SDS011;65096;50.998;7.098;2023-03-11T10:11:05;6.75;;;1.23;;
76284;SDS011;65096;50.998;7.098;2023-03-11T10:13:42;5.55;;;0.95;;
76284;SDS011;65096;50.998;7.098;2023-03-11T10:16:17;2.50;;;0.82;;
76284;SDS011;65096;50.998;7.098;2023-03-11T10:18:52;2.25;;;0.65;;
76284;SDS011;65096;50.998;7.098;2023-03-11T10:21:31;4.53;;;0.70;;
76284;SDS011;65096;50.998;7.098;2023-03-11T10:24:12;3.63;;;1.10;;
76284;SDS011;65096;50.998;7.098;2023-03-11T10:26:46;5.18;;;1.42;;
76284;SDS011;65096;50.998;7.098;2023-03-11T10:29:18;6.38;;;1.02;;
76284;SDS011;65096;50.998;7.098;2023-03-11T10:31:49;3.97;;;1.23;;
76284;SDS011;65096;50.998;7.098;2023-03-11T10:34:23;5.72;;;1.17;;
76284;SDS011;65096;50.998;7.098;2023-03-11T10:36:58;5.72;;;1.60;;
76284;SDS011;65096;50.998;7.098;2023-03-11T10:39:30;6.13;;;1.20;;
76284;SDS011;65096;50.998;7.098;2023-03-11T10:41:59;4.10;;;1.40;;
76284;SDS011;65096;50.998;7.098;2023-03-11T10:44:28;4.78;;;1.30;;
76284;SDS011;65096;50.998;7.098;2023-03-11T10:46:59;5.15;;;1.20;;
76284;SDS011;65096;50.998;7.098;2023-03-11T10:49:26;6.07;;;1.13;;
76284;SDS011;65096;50.998;7.098;2023-03-11T10:51:53;3.63;;;1.10;;
76284;SDS011;65096;50.998;7.098;2023-03-11T10:54:26;3.60;;;1.05;;
76284;SDS011;65096;50.998;7.098;2023-03-11T10:56:59;2.92;;;1.27;;
76284;SDS011;65096;50.998;7.098;2023-03-11T10:59:28;5.55;;;1.63;;
76284;SDS011;65096;50.998;7.098;2023-03-11T11:01:56;4.55;;;1.40;;
76284;SDS011;65096;50.998;7.098;2023-03-11T11:04:26;5.22;;;1.35;;
76284;SDS011;65096;50.998;7.098;2023-03-11T11:06:55;6.07;;;1.65;;
76284;SDS011;65096;50.998;7.098;2023-03-11T11:09:24;4.93;;;1.42;;
76284;SDS011;65096;50.998;7.098;2023-03-11T11:12:04;6.25;;;1.63;;
76284;SDS011;65096;50.998;7.098;2023-03-11T11:14:40;4.38;;;1.67;;
76284;SDS011;65096;50.998;7.098;2023-03-11T11:17:18;4.65;;;1.42;;
76284;SDS011;65096;50.998;7.098;2023-03-11T11:19:49;5.28;;;1.50;;
76284;SDS011;65096;50.998;7.098;2023-03-11T11:22:21;3.33;;;1.08;;
76284;SDS011;65096;50.998;7.098;2023-03-11T11:24:49;3.78;;;1.30;;
76284;SDS011;65096;50.998;7.098;2023-03-11T11:27:19;2.97;;;1.35;;
76284;SDS011;65096;50.998;7.098;2023-03-11T11:30:01;5.35;;;1.60;;
76284;SDS011;65096;50.998;7.098;2023-03-11T11:32:38;4.25;;;1.02;;
76284;SDS011;65096;50.998;7.098;2023-03-11T11:35:07;4.30;;;1.40;;
76284;SDS011;65096;50.998;7.098;2023-03-11T11:37:38;5.13;;;1.17;;
76284;SDS011;65096;50.998;7.098;2023-03-11T11:40:14;3.67;;;1.13;;
76284;SDS011;65096;50.998;7.098;2023-03-11T11:42:49;3.17;;;1.05;;
76284;SDS011;65096;50.998;7.098;2023-03-11T11:45:23;3.38;;;1.13;;
76284;SDS011;65096;50.998;7.098;2023-03-11T11:50:31;3.95;;;1.08;;
76284;SDS011;65096;50.998;7.098;2023-03-11T11:53:02;5.30;;;1.20;;
76284;SDS011;65096;50.998;7.098;2023-03-11T11:55:38;4.72;;;1.25;;
76284;SDS011;65096;50.998;7.098;2023-03-11T11:58:10;4.43;;;1.10;;
76284;SDS011;65096;50.998;7.098;2023-03-11T12:00:40;4.20;;;1.40;;
76284;SDS011;65096;50.998;7.098;2023-03-11T12:03:21;4.57;;;1.20;;
76284;SDS011;65096;50.998;7.098;2023-03-11T12:05:56;3.75;;;1.20;;
76284;SDS011;65096;50.998;7.098;2023-03-11T12:08:26;3.30;;;1.20;;
76284;SDS011;65096;50.998;7.098;2023-03-11T12:11:01;5.85;;;1.42;;
76284;SDS011;65096;50.998;7.098;2023-03-11T12:13:38;7.43;;;2.03;;
76284;SDS011;65096;50.998;7.098;2023-03-11T12:16:19;5.13;;;1.38;;
76284;SDS011;65096;50.998;7.098;2023-03-11T12:18:55;4.60;;;1.30;;
76284;SDS011;65096;50.998;7.098;2023-03-11T12:21:28;4.53;;;1.20;;
76284;SDS011;65096;50.998;7.098;2023-03-11T12:24:16;3.13;;;1.13;;
76284;SDS011;65096;50.998;7.098;2023-03-11T12:26:58;4.78;;;1.20;;
76284;SDS011;65096;50.998;7.098;2023-03-11T12:29:29;5.90;;;1.17;;
76284;SDS011;65096;50.998;7.098;2023-03-11T12:31:59;5.10;;;1.35;;
76284;SDS011;65096;50.998;7.098;2023-03-11T12:34:27;5.07;;;1.38;;
76284;SDS011;65096;50.998;7.098;2023-03-11T12:36:57;3.88;;;1.42;;
76284;SDS011;65096;50.998;7.098;2023-03-11T12:39:28;3.65;;;1.05;;
76284;SDS011;65096;50.998;7.098;2023-03-11T12:44:43;5.50;;;1.40;;
76284;SDS011;65096;50.998;7.098;2023-03-11T12:50:28;5.13;;;1.40;;
76284;SDS011;65096;50.998;7.098;2023-03-11T12:53:02;4.28;;;1.30;;
76284;SDS011;65096;50.998;7.098;2023-03-11T12:55:30;5.47;;;1.60;;
76284;SDS011;65096;50.998;7.098;2023-03-11T12:58:00;5.47;;;1.30;;
76284;SDS011;65096;50.998;7.098;2023-03-11T13:01:04;2.28;;;1.13;;
76284;SDS011;65096;50.998;7.098;2023-03-11T13:03:44;4.95;;;1.40;;
76284;SDS011;65096;50.998;7.098;2023-03-11T13:06:29;5.25;;;1.30;;
76284;SDS011;65096;50.998;7.098;2023-03-11T13:09:27;5.05;;;1.40;;
76284;SDS011;65096;50.998;7.098;2023-03-11T13:11:54;4.55;;;1.27;;
76284;SDS011;65096;50.998;7.098;2023-03-11T13:14:26;5.15;;;1.48;;
76284;SDS011;65096;50.998;7.098;2023-03-11T13:16:56;4.68;;;1.33;;
76284;SDS011;65096;50.998;7.098;2023-03-11T13:19:46;3.00;;;1.30;;
76284;SDS011;65096;50.998;7.098;2023-03-11T13:25:28;9.48;;;1.75;;
76284;SDS011;65096;50.998;7.098;2023-03-11T13:28:23;4.38;;;1.45;;
76284;SDS011;65096;50.998;7.098;2023-03-11T13:31:04;2.58;;;1.40;;
76284;SDS011;65096;50.998;7.098;2023-03-11T13:33:51;5.05;;;1.80;;
76284;SDS011;65096;50.998;7.098;2023-03-11T13:36:33;7.38;;;1.42;;
76284;SDS011;65096;50.998;7.098;2023-03-11T13:39:23;4.43;;;1.40;;
76284;SDS011;65096;50.998;7.098;2023-03-11T13:41:56;6.90;;;1.40;;
76284;SDS011;65096;50.998;7.098;2023-03-11T13:44:24;3.97;;;1.30;;
76284;SDS011;65096;50.998;7.098;2023-03-11T13:46:56;3.63;;;1.40;;
76284;SDS011;65096;50.998;7.098;2023-03-11T13:49:31;5.60;;;1.58;;
76284;SDS011;65096;50.998;7.098;2023-03-11T13:52:02;2.70;;;1.23;;
76284;SDS011;65096;50.998;7.098;2023-03-11T13:54:36;4.72;;;1.40;;
76284;SDS011;65096;50.998;7.098;2023-03-11T13:57:12;3.45;;;1.25;;
76284;SDS011;65096;50.998;7.098;2023-03-11T13:59:50;3.25;;;1.35;;
76284;SDS011;65096;50.998;7.098;2023-03-11T14:02:18;3.75;;;1.30;;
76284;SDS011;65096;50.998;7.098;2023-03-11T14:04:48;4.20;;;1.48;;
76284;SDS011;65096;50.998;7.098;2023-03-11T14:07:22;6.43;;;1.40;;
76284;SDS011;65096;50.998;7.098;2023-03-11T14:09:51;4.03;;;1.13;;
76284;SDS011;65096;50.998;7.098;2023-03-11T14:12:42;6.40;;;1.27;;
76284;SDS011;65096;50.998;7.098;2023-03-11T14:15:11;4.28;;;1.30;;
76284;SDS011;65096;50.998;7.098;2023-03-11T14:17:41;3.20;;;1.25;;
76284;SDS011;65096;50.998;7.098;2023-03-11T14:20:12;6.15;;;1.30;;
76284;SDS011;65096;50.998;7.098;2023-03-11T14:22:44;4.78;;;1.33;;
76284;SDS011;65096;50.998;7.098;2023-03-11T14:25:15;6.50;;;1.98;;
76284;SDS011;65096;50.998;7.098;2023-03-11T14:27:47;4.32;;;1.30;;
76284;SDS011;65096;50.998;7.098;2023-03-11T14:30:20;7.25;;;1.35;;
76284;SDS011;65096;50.998;7.098;2023-03-11T14:32:55;3.50;;;1.20;;
76284;SDS011;65096;50.998;7.098;2023-03-11T14:35:25;5.18;;;1.40;;
76284;SDS011;65096;50.998;7.098;2023-03-11T14:37:52;4.82;;;1.27;;
76284;SDS011;65096;50.998;7.098;2023-03-11T14:40:21;4.35;;;1.33;;
76284;SDS011;65096;50.998;7.098;2023-03-11T14:42:50;3.83;;;1.27;;
76284;SDS011;65096;50.998;7.098;2023-03-11T14:45:19;3.88;;;1.13;;
76284;SDS011;65096;50.998;7.098;2023-03-11T14:47:49;3.53;;;1.50;;
76284;SDS011;65096;50.998;7.098;2023-03-11T14:50:19;4.20;;;1.40;;
76284;SDS011;65096;50.998;7.098;2023-03-11T14:52:49;5.60;;;1.30;;
76284;SDS011;65096;50.998;7.098;2023-03-11T14:57:49;6.10;;;2.03;;
76284;SDS011;65096;50.998;7.098;2023-03-11T15:00:20;2.75;;;1.40;;
76284;SDS011;65096;50.998;7.098;2023-03-11T15:02:53;4.20;;;1.30;;
76284;SDS011;65096;50.998;7.098;2023-03-11T15:05:26;3.22;;;1.10;;
76284;SDS011;65096;50.998;7.098;2023-03-11T15:08:02;5.25;;;1.48;;
76284;SDS011;65096;50.998;7.098;2023-03-11T15:10:32;4.28;;;1.30;;
76284;SDS011;65096;50.998;7.098;2023-03-11T15:13:05;4.00;;;1.30;;
76284;SDS011;65096;50.998;7.098;2023-03-11T15:15:33;4.75;;;1.40;;
76284;SDS011;65096;50.998;7.098;2023-03-11T15:18:00;6.55;;;1.55;;
76284;SDS011;65096;50.998;7.098;2023-03-11T15:20:29;4.00;;;1.60;;
76284;SDS011;65096;50.998;7.098;2023-03-11T15:22:57;6.65;;;1.80;;